Time;durP1;ratioP1;P1;durP2;ratioP2;P2;SDS_P1;SDS_P2;PMS_P1;PMS_P2;Temp;Humidity;BMP_temperature;BMP_pressure;BME280_temperature;BME280_humidity;BME280_pressure;Samples;Min_cycle;Max_cycle;Signal;HPM_P1;HPM_P2
2022/07/04 00:00:14;;;;;;;10.45;9.40;;;14.20;99.90;;;;;;5111204;28;20491;-25
2022/07/04 00:02:42;;;;;;;10.02;9.02;;;14.20;99.90;;;;;;5106540;28;20099;-25
2022/07/04 00:05:10;;;;;;;10.30;8.48;;;14.20;99.90;;;;;;5113523;27;20038;-25
2022/07/04 00:07:40;;;;;;;9.52;8.63;;;14.10;99.90;;;;;;5107534;28;20081;-25
2022/07/04 00:10:07;;;;;;;9.93;9.00;;;14.10;99.90;;;;;;5106502;27;20046;-25
2022/07/04 00:12:33;;;;;;;9.85;8.95;;;14.00;99.90;;;;;;5093277;28;20036;-25
2022/07/04 00:14:59;;;;;;;10.38;9.48;;;14.00;99.90;;;;;;5102386;28;20034;-25
2022/07/04 00:17:24;;;;;;;10.45;9.50;;;14.00;99.90;;;;;;5107742;27;20391;-24
2022/07/04 00:19:50;;;;;;;11.80;10.60;;;14.00;99.90;;;;;;5112428;28;20046;-24
2022/07/04 00:22:15;;;;;;;11.13;9.90;;;14.00;99.90;;;;;;5107295;27;20042;-24
2022/07/04 00:24:41;;;;;;;10.75;9.73;;;13.90;99.90;;;;;;5110279;27;20039;-24
2022/07/04 00:27:07;;;;;;;10.55;9.45;;;13.90;99.90;;;;;;5097784;28;20036;-25
2022/07/04 00:29:33;;;;;;;10.32;9.13;;;13.80;99.90;;;;;;5097266;28;20062;-24
2022/07/04 00:31:59;;;;;;;9.80;8.80;;;13.80;99.90;;;;;;5101359;28;20101;-24
2022/07/04 00:34:25;;;;;;;10.18;9.18;;;13.80;99.90;;;;;;5099911;28;20028;-24
2022/07/04 00:36:51;;;;;;;10.00;8.85;;;13.70;99.90;;;;;;5091617;28;20048;-24
2022/07/04 00:39:17;;;;;;;10.65;9.50;;;13.70;99.90;;;;;;5098622;28;20514;-24
2022/07/04 00:41:43;;;;;;;10.93;9.82;;;13.70;99.90;;;;;;5100453;28;20036;-24
2022/07/04 00:44:10;;;;;;;10.15;9.25;;;13.60;99.90;;;;;;5096551;28;20077;-25
2022/07/04 00:46:36;;;;;;;9.07;8.15;;;13.60;99.90;;;;;;5103026;28;20494;-24
2022/07/04 00:49:06;;;;;;;9.77;8.88;;;13.50;99.90;;;;;;5099692;28;20068;-24
2022/07/04 00:51:32;;;;;;;8.93;8.07;;;13.50;99.90;;;;;;5106043;28;20046;-24
2022/07/04 00:53:59;;;;;;;10.07;9.02;;;13.50;99.90;;;;;;5094805;28;20066;-24
2022/07/04 00:56:26;;;;;;;9.07;8.38;;;13.50;99.90;;;;;;5105930;28;20032;-24
2022/07/04 00:58:52;;;;;;;9.82;8.82;;;13.40;99.90;;;;;;5112991;28;20039;-24
2022/07/04 01:01:19;;;;;;;9.80;8.82;;;13.40;99.90;;;;;;5099585;28;20434;-24
2022/07/04 01:03:45;;;;;;;9.40;8.38;;;13.30;99.90;;;;;;5101023;28;20059;-24
2022/07/04 01:06:11;;;;;;;11.30;10.20;;;13.30;99.90;;;;;;5101860;27;20038;-24
2022/07/04 01:08:41;;;;;;;9.93;9.02;;;13.30;99.90;;;;;;5109955;27;20402;-24
2022/07/04 01:11:08;;;;;;;9.90;8.90;;;13.30;99.90;;;;;;5092766;28;20444;-24
2022/07/04 01:13:34;;;;;;;10.38;9.40;;;13.30;99.90;;;;;;5106181;28;20039;-24
2022/07/04 01:16:00;;;;;;;10.43;9.45;;;13.20;99.90;;;;;;5121010;27;20035;-24
2022/07/04 01:18:26;;;;;;;11.13;10.02;;;13.20;99.90;;;;;;5113697;27;20538;-25
2022/07/04 01:20:54;;;;;;;10.68;9.45;;;13.20;99.90;;;;;;5111940;28;20040;-27
2022/07/04 01:23:20;;;;;;;9.75;8.75;;;13.20;99.90;;;;;;5096014;28;20039;-28
2022/07/04 01:25:48;;;;;;;11.68;10.48;;;13.20;99.90;;;;;;5092814;28;20042;-28
2022/07/04 01:28:14;;;;;;;11.50;10.40;;;13.20;99.90;;;;;;5102610;28;20036;-28
2022/07/04 01:30:39;;;;;;;12.60;11.40;;;13.20;99.90;;;;;;5103782;28;20539;-28
2022/07/04 01:33:05;;;;;;;11.05;9.90;;;13.10;99.90;;;;;;5096600;28;20518;-28
2022/07/04 01:35:31;;;;;;;13.25;11.55;;;13.10;99.90;;;;;;5103044;28;20296;-28
2022/07/04 01:37:57;;;;;;;11.73;10.55;;;13.10;99.90;;;;;;5094672;28;20044;-28
2022/07/04 01:40:22;;;;;;;11.55;10.43;;;13.10;99.90;;;;;;5097240;28;20039;-28
2022/07/04 01:42:49;;;;;;;11.82;10.77;;;13.10;99.90;;;;;;5102283;28;20043;-28
2022/07/04 01:45:15;;;;;;;11.85;10.70;;;13.10;99.90;;;;;;5101407;28;20502;-28
2022/07/04 01:47:41;;;;;;;13.10;11.90;;;13.10;99.90;;;;;;5103067;28;20050;-28
2022/07/04 01:50:09;;;;;;;14.70;13.20;;;13.10;99.90;;;;;;5103793;28;20164;-28
2022/07/04 01:52:35;;;;;;;12.25;11.00;;;13.10;99.90;;;;;;5092896;28;20504;-28
2022/07/04 01:55:01;;;;;;;12.52;11.30;;;13.00;99.90;;;;;;5097920;28;20067;-28
2022/07/04 01:57:27;;;;;;;12.43;11.27;;;13.00;99.90;;;;;;5105922;28;20131;-28
2022/07/04 02:02:37;;;;;;;12.07;10.85;;;12.90;99.90;;;;;;5097292;28;20050;-28
2022/07/04 02:05:03;;;;;;;11.00;10.00;;;12.90;99.90;;;;;;5092826;28;20043;-28
2022/07/04 02:07:29;;;;;;;11.38;10.15;;;12.90;99.90;;;;;;5107905;28;20062;-28
2022/07/04 02:09:55;;;;;;;12.77;11.55;;;12.80;99.90;;;;;;5100489;28;20040;-28
2022/07/04 02:15:08;;;;;;;12.60;11.32;;;12.70;99.90;;;;;;5091376;28;20040;-28
2022/07/04 02:17:34;;;;;;;13.90;11.10;;;12.70;99.90;;;;;;5099335;28;20040;-28
2022/07/04 02:19:59;;;;;;;12.57;11.48;;;12.70;99.90;;;;;;5101685;28;20051;-28
2022/07/04 02:22:25;;;;;;;12.73;11.43;;;12.70;99.90;;;;;;5108514;28;20371;-28
2022/07/04 02:24:51;;;;;;;11.85;10.75;;;12.70;99.90;;;;;;5099656;28;20104;-28
2022/07/04 02:27:16;;;;;;;13.00;11.70;;;12.60;99.90;;;;;;5103098;28;20027;-28
2022/07/04 02:29:42;;;;;;;13.35;12.10;;;12.60;99.90;;;;;;5091935;28;20122;-28
2022/07/04 02:32:08;;;;;;;12.40;11.13;;;12.70;99.90;;;;;;5098774;28;20040;-28
2022/07/04 02:34:34;;;;;;;12.02;10.82;;;12.70;99.90;;;;;;5090237;28;20078;-28
2022/07/04 02:37:00;;;;;;;11.40;10.40;;;12.70;99.90;;;;;;5097059;28;20043;-28
2022/07/04 02:39:26;;;;;;;12.30;10.55;;;12.70;99.90;;;;;;5105915;28;20440;-28
2022/07/04 02:41:52;;;;;;;11.05;9.95;;;12.70;99.90;;;;;;5092675;28;20133;-28
2022/07/04 02:44:18;;;;;;;10.75;9.80;;;12.70;99.90;;;;;;5093870;28;20115;-28
2022/07/04 02:46:43;;;;;;;10.55;9.55;;;12.70;99.90;;;;;;5094513;28;20040;-28
2022/07/04 02:49:09;;;;;;;11.15;10.07;;;12.70;99.90;;;;;;5107048;28;20108;-28
2022/07/04 02:51:35;;;;;;;11.50;9.85;;;12.60;99.90;;;;;;5101157;28;20312;-28
2022/07/04 02:54:00;;;;;;;11.40;10.30;;;12.60;99.90;;;;;;5091179;28;20032;-28
2022/07/04 02:56:26;;;;;;;12.20;10.95;;;12.60;99.90;;;;;;5093065;28;20509;-28
2022/07/04 02:58:52;;;;;;;11.23;10.18;;;12.60;99.90;;;;;;5098902;28;20140;-28
2022/07/04 03:01:19;;;;;;;11.50;10.40;;;12.60;99.90;;;;;;5103057;28;20111;-28
2022/07/04 03:03:46;;;;;;;12.68;11.57;;;12.60;99.90;;;;;;5102643;28;20046;-28
2022/07/04 03:06:12;;;;;;;13.15;11.75;;;12.60;99.90;;;;;;5099974;28;20039;-29
2022/07/04 03:08:38;;;;;;;11.05;10.05;;;12.60;99.90;;;;;;5102974;28;20240;-28
2022/07/04 03:11:04;;;;;;;15.48;11.68;;;12.60;99.90;;;;;;5102490;28;20080;-28
2022/07/04 03:13:30;;;;;;;12.98;11.68;;;12.60;99.90;;;;;;5098626;28;20074;-28
2022/07/04 03:15:56;;;;;;;12.18;11.07;;;12.60;99.90;;;;;;5098087;28;20072;-28
2022/07/04 03:18:22;;;;;;;12.88;11.48;;;12.60;99.90;;;;;;5110226;28;20125;-28
2022/07/04 03:20:48;;;;;;;14.10;12.02;;;12.60;99.90;;;;;;5099990;28;20071;-28
2022/07/04 03:23:14;;;;;;;13.80;11.52;;;12.60;99.90;;;;;;5100883;28;20287;-28
2022/07/04 03:25:40;;;;;;;12.07;11.05;;;12.60;99.90;;;;;;5106255;28;20052;-28
2022/07/04 03:28:06;;;;;;;13.00;11.70;;;12.60;99.90;;;;;;5111020;28;20028;-28
2022/07/04 03:30:32;;;;;;;12.80;11.43;;;12.60;99.90;;;;;;5100206;28;20072;-28
2022/07/04 03:32:58;;;;;;;12.35;11.10;;;12.50;99.90;;;;;;5106679;28;20046;-28
2022/07/04 03:35:24;;;;;;;12.57;11.38;;;12.50;99.90;;;;;;5094242;28;20036;-28
2022/07/04 03:37:51;;;;;;;13.18;11.88;;;12.50;99.90;;;;;;5101797;28;20043;-28
2022/07/04 03:40:17;;;;;;;13.30;11.95;;;12.50;99.90;;;;;;5102536;28;20047;-28
2022/07/04 03:42:43;;;;;;;14.38;12.57;;;12.60;99.90;;;;;;5095090;28;20127;-28
2022/07/04 03:45:09;;;;;;;14.77;13.20;;;12.60;99.90;;;;;;5105773;28;20055;-28
2022/07/04 03:47:35;;;;;;;14.73;11.57;;;12.60;99.90;;;;;;5113148;28;20042;-28
2022/07/04 03:50:01;;;;;;;13.05;11.85;;;12.60;99.90;;;;;;5113196;28;20135;-25
2022/07/04 03:52:27;;;;;;;12.40;11.20;;;12.60;99.90;;;;;;5115194;28;20032;-25
2022/07/04 03:54:53;;;;;;;12.73;11.52;;;12.70;99.90;;;;;;5114823;28;20444;-25
2022/07/04 03:57:19;;;;;;;13.50;12.20;;;12.70;99.90;;;;;;5113548;28;20043;-25
2022/07/04 03:59:45;;;;;;;15.80;11.73;;;12.70;99.90;;;;;;5113053;28;20085;-25
2022/07/04 04:02:10;;;;;;;13.57;12.27;;;12.70;99.90;;;;;;5114292;28;20490;-25
2022/07/04 04:07:20;;;;;;;15.98;12.40;;;12.70;99.90;;;;;;5114311;28;20067;-25
2022/07/04 04:09:46;;;;;;;14.02;12.52;;;12.70;99.90;;;;;;5114767;28;20496;-25
2022/07/04 04:12:12;;;;;;;15.48;13.95;;;12.80;99.90;;;;;;5114546;28;20036;-25
2022/07/04 04:14:37;;;;;;;15.13;13.60;;;12.80;99.90;;;;;;5113086;28;20065;-25
2022/07/04 04:17:03;;;;;;;16.00;14.40;;;12.80;99.90;;;;;;5114253;28;20477;-25
2022/07/04 04:19:29;;;;;;;14.27;12.80;;;12.80;99.90;;;;;;5114652;28;20059;-25
2022/07/04 04:21:55;;;;;;;15.05;13.63;;;12.90;99.90;;;;;;5114125;28;20425;-25
2022/07/04 04:24:21;;;;;;;16.83;14.82;;;12.90;99.90;;;;;;5111940;28;20047;-25
2022/07/04 04:26:47;;;;;;;17.50;14.25;;;12.90;99.90;;;;;;5113884;28;20043;-24
2022/07/04 04:29:12;;;;;;;15.73;14.13;;;12.90;99.90;;;;;;5153548;22;20043;-86
2022/07/04 04:31:38;;;;;;;14.07;12.82;;;13.00;99.90;;;;;;5099351;28;20059;-86
2022/07/04 04:34:04;;;;;;;14.95;13.38;;;13.00;99.90;;;;;;5110902;28;20039;-85
2022/07/04 04:36:30;;;;;;;15.23;13.50;;;13.00;99.90;;;;;;5092517;28;20044;-85
2022/07/04 04:38:55;;;;;;;15.63;13.40;;;13.00;99.90;;;;;;5079175;28;20125;-86
2022/07/04 04:41:21;;;;;;;15.95;14.10;;;13.10;99.90;;;;;;5082591;28;20097;-86
2022/07/04 04:43:47;;;;;;;15.60;13.07;;;13.10;99.90;;;;;;5087659;28;20072;-85
2022/07/04 04:46:12;;;;;;;15.95;14.43;;;13.20;99.90;;;;;;5063187;28;20472;-86
2022/07/04 04:48:39;;;;;;;14.20;12.82;;;13.20;99.90;;;;;;5087996;28;20043;-85
2022/07/04 04:51:05;;;;;;;14.18;12.68;;;13.30;99.90;;;;;;5076223;28;20053;-86
2022/07/04 04:53:31;;;;;;;15.70;11.88;;;13.40;99.90;;;;;;5069295;28;20552;-85
2022/07/04 04:55:56;;;;;;;15.13;13.07;;;13.40;99.90;;;;;;5071427;28;20028;-86
2022/07/04 04:58:22;;;;;;;12.90;11.57;;;13.40;99.90;;;;;;5086349;28;20036;-86
2022/07/04 05:00:49;;;;;;;16.73;13.15;;;13.50;99.90;;;;;;5072443;28;20044;-86
2022/07/04 05:03:16;;;;;;;14.23;12.82;;;13.60;99.90;;;;;;5064182;28;20033;-86
2022/07/04 05:05:42;;;;;;;15.07;13.40;;;13.70;99.90;;;;;;5074807;28;20526;-87
2022/07/04 05:08:08;;;;;;;14.70;11.60;;;13.60;99.90;;;;;;5059407;28;20040;-86
2022/07/04 05:10:34;;;;;;;13.75;12.40;;;13.70;99.90;;;;;;5073046;28;20070;-87
2022/07/04 05:13:00;;;;;;;14.10;12.70;;;13.80;99.90;;;;;;5086193;28;20038;-86
2022/07/04 05:15:26;;;;;;;15.15;12.52;;;13.80;99.90;;;;;;5090635;28;20044;-86
2022/07/04 05:17:52;;;;;;;15.90;12.52;;;13.90;99.90;;;;;;5071178;28;20515;-86
2022/07/04 05:20:18;;;;;;;13.80;12.38;;;14.00;99.90;;;;;;5074730;28;20039;-86
2022/07/04 05:23:27;;;;;;;14.00;11.70;;;14.00;99.90;;;;;;5073203;28;20032;-85
2022/07/04 05:25:52;;;;;;;17.38;12.55;;;14.10;99.90;;;;;;5050609;28;20052;-87
2022/07/04 05:28:18;;;;;;;13.38;11.98;;;14.10;99.90;;;;;;5080072;28;20085;-86
2022/07/04 05:30:47;;;;;;;12.23;11.10;;;14.20;99.90;;;;;;5067181;28;20052;-86
2022/07/04 05:33:13;;;;;;;13.60;11.55;;;14.30;99.90;;;;;;5076284;28;20500;-78
2022/07/04 05:35:38;;;;;;;17.17;11.65;;;14.30;99.90;;;;;;5068322;28;20044;-78
2022/07/04 05:38:04;;;;;;;12.35;11.02;;;14.40;99.90;;;;;;5078819;28;20145;-79
2022/07/04 05:40:30;;;;;;;12.52;11.43;;;14.50;99.90;;;;;;5084923;28;20051;-78
2022/07/04 05:42:56;;;;;;;12.05;10.77;;;14.60;99.90;;;;;;5077035;28;20033;-79
2022/07/04 05:45:22;;;;;;;14.88;11.20;;;14.70;99.90;;;;;;5087003;28;20054;-79
2022/07/04 05:47:47;;;;;;;12.85;11.43;;;14.70;99.90;;;;;;5065018;28;20036;-79
2022/07/04 05:50:13;;;;;;;13.57;12.07;;;14.80;99.90;;;;;;5089837;28;20089;-78
2022/07/04 05:52:39;;;;;;;13.25;11.50;;;14.90;99.90;;;;;;5078081;28;20117;-79
2022/07/04 05:55:06;;;;;;;12.05;10.95;;;15.00;99.90;;;;;;5073969;28;20029;-79
2022/07/04 05:57:32;;;;;;;12.32;11.05;;;15.20;99.90;;;;;;5081086;28;20074;-87
2022/07/04 05:59:57;;;;;;;13.60;10.93;;;15.30;99.90;;;;;;5057055;28;20619;-86
2022/07/04 06:02:23;;;;;;;16.83;11.90;;;15.40;99.90;;;;;;5061255;28;20043;-87
2022/07/04 06:04:49;;;;;;;15.50;11.20;;;15.50;99.90;;;;;;5067189;28;20123;-86
2022/07/04 06:07:14;;;;;;;14.77;10.80;;;15.60;99.90;;;;;;5071385;28;20041;-87
2022/07/04 06:09:40;;;;;;;12.18;10.75;;;15.70;99.90;;;;;;5066357;28;20106;-87
2022/07/04 06:12:06;;;;;;;13.77;11.10;;;15.80;99.90;;;;;;5066631;28;20078;-88
2022/07/04 06:14:32;;;;;;;11.40;10.30;;;15.80;99.90;;;;;;5077172;28;20074;-87
2022/07/04 06:16:57;;;;;;;11.23;10.07;;;15.90;99.90;;;;;;5089831;28;20048;-88
2022/07/04 06:19:28;;;;;;;10.68;9.57;;;16.00;99.90;;;;;;5076436;28;20051;-88
2022/07/04 06:21:56;;;;;;;11.73;9.65;;;16.10;99.90;;;;;;5065057;28;20041;-88
2022/07/04 06:24:22;;;;;;;11.43;10.10;;;16.20;99.90;;;;;;5073215;28;20048;-88
2022/07/04 06:27:01;;;;;;;13.52;9.63;;;16.30;99.90;;;;;;5071424;28;20040;-88
2022/07/04 06:29:32;;;;;;;8.90;8.00;;;16.30;99.90;;;;;;5061418;28;20069;-89
2022/07/04 06:31:58;;;;;;;9.85;8.27;;;16.40;99.90;;;;;;5081017;28;20451;-88
2022/07/04 06:37:08;;;;;;;9.10;7.95;;;16.60;99.90;;;;;;5083035;28;20040;-79
2022/07/04 06:39:33;;;;;;;11.05;8.65;;;16.80;99.90;;;;;;5086311;28;20044;-79
2022/07/04 06:41:59;;;;;;;15.70;8.20;;;17.00;99.90;;;;;;5079963;28;20036;-80
2022/07/04 06:44:24;;;;;;;9.43;7.72;;;17.20;99.90;;;;;;5076914;28;20447;-79
2022/07/04 06:46:50;;;;;;;10.45;7.68;;;17.40;99.90;;;;;;5073679;28;20048;-80
2022/07/04 06:49:16;;;;;;;10.43;7.88;;;17.60;99.90;;;;;;5060419;28;20052;-79
2022/07/04 06:51:42;;;;;;;9.70;8.25;;;17.70;99.90;;;;;;5069076;28;20324;-79
2022/07/04 06:54:08;;;;;;;9.02;7.97;;;17.70;99.90;;;;;;5078186;28;20036;-78
2022/07/04 06:56:33;;;;;;;12.95;8.00;;;17.70;99.90;;;;;;5089495;28;20036;-79
2022/07/04 06:58:59;;;;;;;11.60;7.90;;;17.80;99.90;;;;;;5073933;28;20032;-79
2022/07/04 07:01:25;;;;;;;8.48;7.47;;;17.80;99.90;;;;;;5062270;28;20048;-79
2022/07/04 07:03:50;;;;;;;10.13;7.22;;;17.90;99.90;;;;;;5073689;28;20503;-79
2022/07/04 07:06:16;;;;;;;12.60;7.43;;;18.00;99.90;;;;;;5090375;28;20131;-79
2022/07/04 07:08:43;;;;;;;10.00;7.38;;;18.00;99.90;;;;;;5081748;28;20074;-79
2022/07/04 07:11:16;;;;;;;9.10;7.10;;;18.00;99.90;;;;;;5082630;28;20067;-79
2022/07/04 07:13:44;;;;;;;9.32;7.32;;;18.20;99.90;;;;;;5083758;28;20058;-79
2022/07/04 07:16:10;;;;;;;9.52;6.90;;;18.30;99.90;;;;;;5086444;28;20497;-79
2022/07/04 07:18:36;;;;;;;9.80;7.00;;;18.40;99.90;;;;;;5066870;28;20090;-79
2022/07/04 07:21:02;;;;;;;9.43;6.65;;;18.50;99.90;;;;;;5085434;28;20040;-80
2022/07/04 07:23:27;;;;;;;8.75;6.75;;;18.80;99.90;;;;;;5083148;28;20041;-80
2022/07/04 07:25:53;;;;;;;8.73;6.65;;;18.90;99.90;;;;;;5079438;28;20105;-79
2022/07/04 07:28:19;;;;;;;7.70;6.32;;;18.90;99.90;;;;;;5075396;28;20048;-80
2022/07/04 07:30:44;;;;;;;10.60;7.50;;;19.00;99.90;;;;;;5068567;28;20064;-80
2022/07/04 07:33:11;;;;;;;8.48;6.68;;;19.10;99.90;;;;;;5078385;28;20032;-79
2022/07/04 07:35:37;;;;;;;7.30;6.60;;;19.30;99.90;;;;;;5064861;28;20040;-80
2022/07/04 07:38:02;;;;;;;10.23;7.15;;;19.30;99.90;;;;;;5082066;28;20101;-80
2022/07/04 07:40:28;;;;;;;10.73;7.03;;;19.40;99.90;;;;;;5082833;28;20052;-79
2022/07/04 07:42:54;;;;;;;10.77;7.13;;;19.60;99.90;;;;;;5077297;28;20041;-80
2022/07/04 07:45:20;;;;;;;8.48;6.60;;;19.70;99.90;;;;;;5079637;28;20105;-80
2022/07/04 07:47:46;;;;;;;10.20;6.50;;;19.70;99.90;;;;;;5080511;28;20044;-80
2022/07/04 07:50:12;;;;;;;9.85;6.07;;;19.70;99.90;;;;;;5065925;28;20120;-80
2022/07/04 07:52:38;;;;;;;8.88;6.25;;;19.80;99.90;;;;;;5089256;28;20072;-79
2022/07/04 07:55:04;;;;;;;10.40;5.88;;;20.00;99.90;;;;;;5075230;28;20044;-80
2022/07/04 07:57:30;;;;;;;8.70;6.35;;;20.10;99.90;;;;;;5076914;28;20044;-80
2022/07/04 07:59:56;;;;;;;11.02;6.88;;;20.00;99.90;;;;;;5085848;28;20032;-80
2022/07/04 08:05:08;;;;;;;10.05;6.78;;;19.90;99.90;;;;;;5089238;28;20045;-79
2022/07/04 08:07:33;;;;;;;10.93;6.70;;;19.90;99.90;;;;;;5078101;28;20509;-80
2022/07/04 08:09:59;;;;;;;8.57;5.90;;;19.90;99.90;;;;;;5082048;28;20040;-79
2022/07/04 08:12:25;;;;;;;8.68;5.95;;;20.10;99.90;;;;;;5083535;28;20059;-81
2022/07/04 08:14:50;;;;;;;11.18;5.38;;;20.10;99.90;;;;;;5090539;28;20060;-79
2022/07/04 08:17:16;;;;;;;9.13;4.90;;;20.10;99.90;;;;;;5097689;28;20039;-79
2022/07/04 08:19:41;;;;;;;7.07;4.97;;;20.00;99.90;;;;;;5091137;28;20056;-79
2022/07/04 08:22:07;;;;;;;11.98;5.03;;;20.00;99.90;;;;;;5063210;28;20063;-80
2022/07/04 08:24:33;;;;;;;7.63;4.82;;;20.00;99.90;;;;;;5089993;28;20252;-79
2022/07/04 08:26:58;;;;;;;7.65;4.38;;;20.00;99.90;;;;;;5081814;28;20036;-79
2022/07/04 08:29:26;;;;;;;10.02;4.93;;;20.00;99.90;;;;;;5083570;28;20040;-80
2022/07/04 08:31:52;;;;;;;8.55;4.53;;;20.00;99.90;;;;;;5085579;28;20033;-80
2022/07/04 08:34:18;;;;;;;7.72;5.20;;;19.90;99.90;;;;;;5081630;28;20063;-81
2022/07/04 08:36:43;;;;;;;10.23;5.72;;;20.00;99.90;;;;;;5084870;28;20120;-80
2022/07/04 08:39:09;;;;;;;10.05;4.88;;;20.10;99.90;;;;;;5060720;28;20073;-80
2022/07/04 08:41:40;;;;;;;9.13;5.13;;;20.00;99.90;;;;;;5078504;28;20043;-80
2022/07/04 08:44:11;;;;;;;8.85;4.70;;;19.80;99.90;;;;;;5065780;28;20166;-81
2022/07/04 08:46:39;;;;;;;10.73;4.45;;;19.70;99.90;;;;;;5082095;28;20052;-80
2022/07/04 08:49:20;;;;;;;8.48;3.90;;;20.20;99.90;;;;;;5086213;28;20047;-80
2022/07/04 08:52:01;;;;;;;7.97;3.42;;;20.60;99.90;;;;;;5089494;28;20046;-80
2022/07/04 08:59:58;;;;;;;6.65;3.53;;;21.60;99.90;;;;;;5094836;28;20039;-80
2022/07/04 09:02:26;;;;;;;9.50;3.70;;;21.60;99.90;;;;;;5094849;28;20066;-79
2022/07/04 09:05:22;;;;;;;5.97;3.30;;;21.70;99.90;;;;;;5089750;28;20082;-83
2022/07/04 09:08:33;;;;;;;8.73;3.80;;;21.90;99.90;;;;;;4988948;28;20053;-82
2022/07/04 09:11:07;;;;;;;7.20;3.30;;;22.10;99.90;;;;;;4990413;28;20045;-81
2022/07/04 09:13:33;;;;;;;7.53;2.88;;;22.00;99.90;;;;;;4990879;28;20057;-80
2022/07/04 09:16:00;;;;;;;6.47;2.30;;;21.60;99.90;;;;;;4997734;28;20050;-80
2022/07/04 09:18:32;;;;;;;3.05;2.20;;;21.40;99.90;;;;;;5019205;28;20052;-82
2022/07/04 09:21:04;;;;;;;4.18;2.38;;;21.20;99.90;;;;;;5074084;28;20041;-82
2022/07/04 09:23:32;;;;;;;4.90;2.42;;;21.10;99.90;;;;;;5086764;28;20040;-82
2022/07/04 09:26:16;;;;;;;7.00;2.58;;;20.90;99.90;;;;;;5086997;28;20754;-82
2022/07/04 09:28:52;;;;;;;5.70;2.03;;;20.80;99.90;;;;;;5082039;28;20067;-81
2022/07/04 09:31:23;;;;;;;5.22;2.08;;;21.20;99.90;;;;;;5086614;28;20036;-82
2022/07/04 09:33:53;;;;;;;5.60;2.30;;;21.70;99.90;;;;;;5083348;28;20095;-81
2022/07/04 09:36:24;;;;;;;5.38;2.20;;;22.20;99.90;;;;;;5091169;28;20549;-82
2022/07/04 09:39:18;;;;;;;4.32;2.13;;;22.30;99.90;;;;;;5082249;28;20081;-82
2022/07/04 09:42:03;;;;;;;6.15;2.45;;;22.40;99.90;;;;;;5086599;28;20049;-81
2022/07/04 09:44:44;;;;;;;4.05;1.92;;;22.40;99.90;;;;;;5085083;28;20096;-82
2022/07/04 09:47:40;;;;;;;4.65;2.00;;;22.20;99.90;;;;;;5091887;28;20144;-81
2022/07/04 09:50:08;;;;;;;6.15;2.10;;;22.00;99.90;;;;;;5059172;28;20052;-87
2022/07/04 09:53:02;;;;;;;3.38;1.73;;;21.90;99.90;;;;;;5078024;28;20036;-90
2022/07/04 09:55:39;;;;;;;4.57;2.10;;;21.70;99.90;;;;;;5060735;28;20532;-89
2022/07/04 09:58:06;;;;;;;4.60;1.90;;;21.50;99.90;;;;;;5065771;28;20047;-89
2022/07/04 10:00:37;;;;;;;2.95;1.80;;;21.40;99.90;;;;;;5068525;28;20044;-89
2022/07/04 10:03:25;;;;;;;4.40;2.03;;;21.50;99.90;;;;;;5064296;28;20040;-88
2022/07/04 10:06:15;;;;;;;3.15;1.65;;;22.20;99.90;;;;;;5092982;28;20051;-87
2022/07/04 10:09:17;;;;;;;3.42;1.70;;;22.80;99.90;;;;;;5078169;28;20043;-90
2022/07/04 10:11:45;;;;;;;3.90;2.00;;;23.20;99.90;;;;;;5084957;28;20075;-90
2022/07/04 10:14:18;;;;;;;3.60;1.90;;;23.40;99.90;;;;;;5065722;28;20052;-90
2022/07/04 10:16:48;;;;;;;4.43;1.83;;;23.40;99.50;;;;;;5068001;28;20044;-90
2022/07/04 10:19:17;;;;;;;4.40;1.73;;;23.30;90.50;;;;;;5081564;28;20493;-90
2022/07/04 10:21:43;;;;;;;3.20;1.30;;;23.40;97.10;;;;;;5086211;28;20045;-82
2022/07/04 10:24:09;;;;;;;4.97;1.77;;;23.70;96.80;;;;;;5080722;28;20124;-79
2022/07/04 10:26:35;;;;;;;4.22;1.40;;;24.20;96.30;;;;;;5072106;28;20564;-83
2022/07/04 10:29:01;;;;;;;3.35;1.30;;;24.50;93.70;;;;;;5144128;22;20073;-82
2022/07/04 10:31:34;;;;;;;2.22;1.27;;;24.80;96.20;;;;;;5086086;28;20036;-82
2022/07/04 10:34:20;;;;;;;1.55;1.30;;;25.10;91.50;;;;;;5102805;28;20036;-82
2022/07/04 10:44:25;;;;;;;3.28;1.70;;;25.60;75.40;;;;;;4985284;28;20053;-83
2022/07/04 10:47:00;;;;;;;3.55;1.33;;;25.90;61.90;;;;;;4965594;28;20102;-82
2022/07/04 10:49:58;;;;;;;2.60;1.30;;;26.10;71.40;;;;;;5003574;28;20048;-81
2022/07/04 10:53:03;;;;;;;3.55;1.42;;;26.40;63.10;;;;;;5043508;28;20056;-83
2022/07/04 10:56:26;;;;;;;4.70;1.30;;;26.60;60.70;;;;;;5062191;28;20565;-83
2022/07/04 10:59:32;;;;;;;2.00;1.42;;;26.70;66.20;;;;;;5061100;28;20060;-83
2022/07/04 11:02:40;;;;;;;3.85;1.27;;;26.40;57.10;;;;;;5074909;28;20044;-83
2022/07/04 11:05:14;;;;;;;3.85;1.65;;;25.70;62.50;;;;;;5033026;28;20044;-82
2022/07/04 11:07:47;;;;;;;1.98;1.30;;;24.80;65.80;;;;;;5060323;28;20149;-82
2022/07/04 11:10:43;;;;;;;3.90;1.33;;;24.30;62.10;;;;;;5080532;28;20067;-82
2022/07/04 11:14:06;;;;;;;1.70;1.10;;;23.60;64.10;;;;;;5055507;28;20392;-82
2022/07/04 11:17:46;;;;;;;1.73;1.10;;;23.90;69.10;;;;;;5047026;28;20044;-81
2022/07/04 11:20:24;;;;;;;2.50;1.10;;;24.70;73.60;;;;;;5047320;28;20041;-81
2022/07/04 11:23:10;;;;;;;1.55;1.17;;;24.80;62.10;;;;;;5046667;28;20055;-81
2022/07/04 11:25:44;;;;;;;2.20;1.10;;;25.40;67.60;;;;;;5069661;28;20044;-85
2022/07/04 11:28:26;;;;;;;2.08;1.13;;;25.80;61.00;;;;;;5071071;28;20036;-81
2022/07/04 11:30:56;;;;;;;3.08;1.40;;;25.50;56.50;;;;;;5059433;28;20496;-81
2022/07/04 11:33:27;;;;;;;2.47;1.23;;;25.60;55.80;;;;;;5083950;28;20037;-80
2022/07/04 11:36:14;;;;;;;1.88;1.35;;;25.80;58.10;;;;;;5083073;28;20541;-83
2022/07/04 11:39:04;;;;;;;2.50;1.15;;;26.10;53.70;;;;;;5067577;28;20044;-81
2022/07/04 11:47:35;;;;;;;4.10;1.50;;;25.70;56.00;;;;;;5084623;28;20076;-81
2022/07/04 11:50:10;;;;;;;2.85;1.48;;;25.30;55.80;;;;;;5060249;28;20047;-83
2022/07/04 11:52:48;;;;;;;1.98;1.52;;;25.50;58.50;;;;;;5080311;28;20413;-82
2022/07/04 11:55:16;;;;;;;1.98;1.30;;;25.60;55.80;;;;;;5055387;28;20069;-81
2022/07/04 11:57:51;;;;;;;1.70;1.00;;;26.00;57.60;;;;;;5090465;28;20055;-81
2022/07/04 12:00:20;;;;;;;1.40;1.25;;;26.20;56.70;;;;;;5086029;28;20044;-80
2022/07/04 12:02:47;;;;;;;1.73;1.00;;;26.60;55.10;;;;;;5053877;28;20045;-79
2022/07/04 12:05:14;;;;;;;2.03;0.90;;;26.40;55.40;;;;;;5054357;28;20051;-79
2022/07/04 12:07:42;;;;;;;1.83;1.10;;;26.10;55.40;;;;;;5080345;28;20493;-81
2022/07/04 12:10:14;;;;;;;1.92;1.17;;;25.60;54.10;;;;;;5074937;28;20047;-80
2022/07/04 12:12:53;;;;;;;1.38;1.20;;;25.50;54.10;;;;;;5074981;28;20040;-80
2022/07/04 12:15:20;;;;;;;2.22;1.27;;;25.20;53.50;;;;;;5061116;28;20047;-81
2022/07/04 12:17:54;;;;;;;1.63;1.20;;;25.10;54.50;;;;;;5081180;28;20036;-81
2022/07/04 12:20:21;;;;;;;2.35;1.45;;;25.50;57.10;;;;;;5079270;28;20067;-81
2022/07/04 12:22:50;;;;;;;2.13;1.35;;;25.70;55.80;;;;;;5063737;28;20041;-80
2022/07/04 12:25:34;;;;;;;2.53;1.15;;;25.60;55.20;;;;;;5080726;28;20076;-82
2022/07/04 12:28:11;;;;;;;2.30;1.30;;;26.00;56.50;;;;;;5081056;28;20045;-82
2022/07/04 12:31:01;;;;;;;2.13;1.20;;;25.90;54.60;;;;;;5064249;28;20040;-81
2022/07/04 12:33:28;;;;;;;2.15;1.35;;;26.00;55.50;;;;;;5076272;28;20112;-82
2022/07/04 12:36:05;;;;;;;1.90;1.40;;;26.40;56.10;;;;;;5068691;28;20029;-82
2022/07/04 12:38:36;;;;;;;2.10;1.23;;;26.30;54.80;;;;;;5080413;28;20055;-80
2022/07/04 12:41:03;;;;;;;2.42;1.30;;;26.20;53.10;;;;;;5083476;28;20048;-81
2022/07/04 12:43:41;;;;;;;2.20;1.17;;;25.90;53.40;;;;;;5078400;28;20037;-82
2022/07/04 12:46:24;;;;;;;1.50;1.27;;;25.70;53.00;;;;;;5060424;28;20177;-80
2022/07/04 14:10:38;;;;;;;2.10;0.80;;;28.70;44.40;;;;;;5083038;28;20100;-87
2022/07/04 14:13:09;;;;;;;2.83;0.80;;;28.40;44.00;;;;;;5079622;28;20033;-81
2022/07/04 14:15:57;;;;;;;1.65;0.98;;;28.70;45.50;;;;;;5060947;28;20162;-82
2022/07/04 14:18:32;;;;;;;2.38;0.80;;;28.50;44.40;;;;;;5076369;28;20187;-81
2022/07/04 14:21:04;;;;;;;0.93;0.60;;;28.60;44.00;;;;;;5066690;28;20037;-82
2022/07/04 14:23:44;;;;;;;2.65;0.82;;;28.80;44.10;;;;;;5065321;28;20123;-81
2022/07/04 14:26:19;;;;;;;2.00;0.80;;;28.50;42.80;;;;;;5065192;28;20045;-82
2022/07/04 14:28:45;;;;;;;1.73;0.70;;;28.30;41.60;;;;;;5084948;28;20047;-82
2022/07/04 14:31:18;;;;;;;1.85;0.70;;;28.20;42.90;;;;;;5070477;28;20047;-82
2022/07/04 14:34:11;;;;;;;1.63;0.80;;;28.60;43.40;;;;;;5068818;28;20080;-82
2022/07/04 14:36:57;;;;;;;0.70;0.70;;;28.80;41.80;;;;;;5095013;28;20048;-81
2022/07/04 14:39:27;;;;;;;1.05;0.63;;;28.80;41.80;;;;;;5076473;28;20043;-81
2022/07/04 14:41:56;;;;;;;1.15;0.70;;;29.00;42.20;;;;;;5070431;28;20052;-81
2022/07/04 14:44:40;;;;;;;1.73;0.80;;;28.90;41.30;;;;;;5067356;28;20094;-83
2022/07/04 14:47:09;;;;;;;0.68;0.63;;;28.80;42.30;;;;;;5088868;28;20074;-82